地図

経路データ

SID SEASON NUMBER BASIN SUBBASIN NAME ISO_TIME NATURE LAT LON WMO_WIND WMO_PRES WMO_AGENCY TRACK_TYPE DIST2LAND LANDFALL IFLAG USA_AGENCY USA_ATCF_ID USA_LAT USA_LON USA_RECORD USA_STATUS USA_WIND USA_PRES USA_SSHS USA_R34_NE USA_R34_SE USA_R34_SW USA_R34_NW USA_R50_NE USA_R50_SE USA_R50_SW USA_R50_NW USA_R64_NE USA_R64_SE USA_R64_SW USA_R64_NW USA_POCI USA_ROCI USA_RMW USA_EYE TOKYO_LAT TOKYO_LON TOKYO_GRADE TOKYO_WIND TOKYO_PRES TOKYO_R50_DIR TOKYO_R50_LONG TOKYO_R50_SHORT TOKYO_R30_DIR TOKYO_R30_LONG TOKYO_R30_SHORT TOKYO_LAND CMA_LAT CMA_LON CMA_CAT CMA_WIND CMA_PRES HKO_LAT HKO_LON HKO_CAT HKO_WIND HKO_PRES NEWDELHI_LAT NEWDELHI_LON NEWDELHI_GRADE NEWDELHI_WIND NEWDELHI_PRES NEWDELHI_CI NEWDELHI_DP NEWDELHI_POCI REUNION_LAT REUNION_LON REUNION_TYPE REUNION_WIND REUNION_PRES REUNION_TNUM REUNION_CI REUNION_RMW REUNION_R34_NE REUNION_R34_SE REUNION_R34_SW REUNION_R34_NW REUNION_R50_NE REUNION_R50_SE REUNION_R50_SW REUNION_R50_NW REUNION_R64_NE REUNION_R64_SE REUNION_R64_SW REUNION_R64_NW BOM_LAT BOM_LON BOM_TYPE BOM_WIND BOM_PRES BOM_TNUM BOM_CI BOM_RMW BOM_R34_NE BOM_R34_SE BOM_R34_SW BOM_R34_NW BOM_R50_NE BOM_R50_SE BOM_R50_SW BOM_R50_NW BOM_R64_NE BOM_R64_SE BOM_R64_SW BOM_R64_NW BOM_ROCI BOM_POCI BOM_EYE BOM_POS_METHOD BOM_PRES_METHOD NADI_LAT NADI_LON NADI_CAT NADI_WIND NADI_PRES WELLINGTON_LAT WELLINGTON_LON WELLINGTON_WIND WELLINGTON_PRES DS824_LAT DS824_LON DS824_STAGE DS824_WIND DS824_PRES TD9636_LAT TD9636_LON TD9636_STAGE TD9636_WIND TD9636_PRES TD9635_LAT TD9635_LON TD9635_WIND TD9635_PRES TD9635_ROCI NEUMANN_LAT NEUMANN_LON NEUMANN_CLASS NEUMANN_WIND NEUMANN_PRES MLC_LAT MLC_LON MLC_CLASS MLC_WIND MLC_PRES USA_GUST BOM_GUST BOM_GUST_PER REUNION_GUST REUNION_GUST_PER USA_SEAHGT USA_SEARAD_NE USA_SEARAD_SE USA_SEARAD_SW USA_SEARAD_NW STORM_SPEED STORM_DIR
1918021S16153 1918 7 SP EA NOT_NAMED 1918-01-20 23:00:00 NR -15.8000 153.100 main 637 633 __________O___ -1 -15.8000 153.100 7 11 232
1918021S16153 1918 7 SP EA NOT_NAMED 1918-01-21 00:00:00 NR -15.9158 152.947 main 639 602 __________P___ -1 -15.9158 152.947 7 11 232
1918021S16153 1918 7 SP EA NOT_NAMED 1918-01-21 03:00:00 NR -16.2598 152.490 main 593 540 __________P___ -1 -16.2598 152.490 7 11 232
1918021S16153 1918 7 SP EA NOT_NAMED 1918-01-21 06:00:00 NR -16.5924 152.036 main 534 481 __________P___ -1 -16.5924 152.036 7 11 233
1918021S16153 1918 7 SP EA NOT_NAMED 1918-01-21 09:00:00 NR -16.9057 151.590 main 481 444 __________P___ -1 -16.9057 151.590 7 10 234
1918021S16153 1918 7 SP EA NOT_NAMED 1918-01-21 11:00:00 NR -17.1000 151.300 main 444 429 __________O___ -1 -17.1000 151.300 7 10 235
1918021S16153 1918 7 SP EA NOT_NAMED 1918-01-21 12:00:00 NR -17.1920 151.157 main 429 386 __________P___ -1 -17.1920 151.157 7 10 237
1918021S16153 1918 7 SP EA NOT_NAMED 1918-01-21 15:00:00 NR -17.4477 150.743 main 381 335 __________P___ -1 -17.4477 150.743 7 9 238
1918021S16153 1918 7 SP EA NOT_NAMED 1918-01-21 18:00:00 NR -17.6752 150.357 main 335 295 __________P___ -1 -17.6752 150.357 7 8 238
1918021S16153 1918 7 SP EA NOT_NAMED 1918-01-21 21:00:00 NR -17.8776 150.008 main 295 273 __________P___ -1 -17.8776 150.008 7 7 239
1918021S16153 1918 7 SP EA NOT_NAMED 1918-01-21 23:00:00 NR -18.0000 149.800 main 273 258 __________O___ -1 -18.0000 149.800 7 7 238
1918021S16153 1918 7 SP EA NOT_NAMED 1918-01-22 00:00:00 NR -18.0599 149.702 main 258 237 __________P___ -1 -18.0599 149.702 7 6 237
1918021S16153 1918 7 SP EA NOT_NAMED 1918-01-22 03:00:00 NR -18.2233 149.441 main 232 202 __________P___ -1 -18.2233 149.441 7 6 236
1918021S16153 1918 7 SP EA NOT_NAMED 1918-01-22 06:00:00 NR -18.3695 149.219 main 202 183 __________P___ -1 -18.3695 149.219 7 5 234
1918021S16153 1918 7 SP EA NOT_NAMED 1918-01-22 09:00:00 NR -18.5077 149.023 main 183 168 __________P___ -1 -18.5077 149.023 7 5 233
1918021S16153 1918 7 SP EA NOT_NAMED 1918-01-22 11:00:00 NR -18.6000 148.900 main 168 168 __________O___ -1 -18.6000 148.900 7 4 232
1918021S16153 1918 7 SP EA NOT_NAMED 1918-01-22 12:00:00 NR -18.6376 148.844 main 165 151 __________P___ -1 -18.6376 148.844 7 4 233
1918021S16153 1918 7 SP EA NOT_NAMED 1918-01-22 15:00:00 NR -18.7452 148.693 main 151 124 __________P___ -1 -18.7452 148.693 7 4 231
1918021S16153 1918 7 SP EA NOT_NAMED 1918-01-22 18:00:00 NR -18.8697 148.541 main 124 109 __________P___ -1 -18.8697 148.541 7 4 227
1918021S16153 1918 7 SP EA NOT_NAMED 1918-01-22 21:00:00 NR -19.0425 148.356 main 109 79 __________P___ -1 -19.0425 148.356 7 6 224
1918021S16153 1918 7 SP EA NOT_NAMED 1918-01-22 23:00:00 NR -19.2000 148.200 main 79 64 __________O___ -1 -19.2000 148.200 7 7 223
1918021S16153 1918 7 SP EA NOT_NAMED 1918-01-23 00:00:00 NR -19.3011 148.106 main 64 22 __________P___ -1 -19.3011 148.106 7 9 221
1918021S16153 1918 7 SP EA NOT_NAMED 1918-01-23 03:00:00 NR -19.6598 147.780 main 11 0 __________P___ -1 -19.6598 147.780 7 10 221
1918021S16153 1918 7 SP EA NOT_NAMED 1918-01-23 06:00:00 NR -20.0752 147.402 main 0 0 __________P___ -1 -20.0752 147.402 7 11 221
1918021S16153 1918 7 SP EA NOT_NAMED 1918-01-23 09:00:00 NR -20.5128 146.988 main 0 0 __________P___ -1 -20.5128 146.988 7 12 222
1918021S16153 1918 7 SP EA NOT_NAMED 1918-01-23 11:00:00 NR -20.8000 146.700 main 0 0 __________O___ -1 -20.8000 146.700 7 12 223
1918021S16153 1918 7 SP EA NOT_NAMED 1918-01-23 12:00:00 NR -20.9432 146.553 main 0 0 __________P___ -1 -20.9432 146.553 7 12 225
1918021S16153 1918 7 SP EA NOT_NAMED 1918-01-23 15:00:00 NR -21.3734 146.092 main 0 0 __________P___ -1 -21.3734 146.092 7 12 226
1918021S16153 1918 7 SP EA NOT_NAMED 1918-01-23 18:00:00 NR -21.7777 145.623 main 0 0 __________P___ -1 -21.7777 145.623 7 11 229
1918021S16153 1918 7 SP EA NOT_NAMED 1918-01-23 21:00:00 NR -22.1214 145.174 main 0 0 __________P___ -1 -22.1214 145.174 7 10 232
1918021S16153 1918 7 SP EA NOT_NAMED 1918-01-23 23:00:00 NR -22.3000 144.900 main 0 0 __________O___ -1 -22.3000 144.900 7 9 236
1918021S16153 1918 7 SP EA NOT_NAMED 1918-01-24 00:00:00 NR -22.3711 144.781 main 0 0 __________P___ -1 -22.3711 144.781 7 7 242
1918021S16153 1918 7 SP EA NOT_NAMED 1918-01-24 03:00:00 NR -22.5211 144.457 main 0 0 __________P___ -1 -22.5211 144.457 7 6 249
1918021S16153 1918 7 SP EA NOT_NAMED 1918-01-24 06:00:00 NR -22.5933 144.167 main 0 0 __________P___ -1 -22.5933 144.167 7 5 260
1918021S16153 1918 7 SP EA NOT_NAMED 1918-01-24 09:00:00 NR -22.6096 143.890 main 0 0 __________P___ -1 -22.6096 143.890 7 5 269
1918021S16153 1918 7 SP EA NOT_NAMED 1918-01-24 11:00:00 NR -22.6000 143.700 main 0 0 __________O___ -1 -22.6000 143.700 7 5 272
1918021S16153 1918 7 SP EA NOT_NAMED 1918-01-24 12:00:00 NR -22.6013 143.595 main 0 0 __________P___ -1 -22.6013 143.595 7 6 273
1918021S16153 1918 7 SP EA NOT_NAMED 1918-01-24 15:00:00 NR -22.5781 143.274 main 0 0 __________P___ -1 -22.5781 143.274 7 6 277
1918021S16153 1918 7 SP EA NOT_NAMED 1918-01-24 18:00:00 NR -22.5242 142.948 main 0 0 __________P___ -1 -22.5242 142.948 7 6 282
1918021S16153 1918 7 SP EA NOT_NAMED 1918-01-24 21:00:00 NR -22.4521 142.619 main 0 0 __________P___ -1 -22.4521 142.619 7 6 284
1918021S16153 1918 7 SP EA NOT_NAMED 1918-01-24 23:00:00 NR -22.4000 142.400 main 0 0 __________O___ -1 -22.4000 142.400 7 6 284
1918021S16153 1918 7 SP EA NOT_NAMED 1918-01-25 00:00:00 NR -22.3783 142.290 main 0 0 __________P___ -1 -22.3783 142.290 7 6 283
1918021S16153 1918 7 SP EA NOT_NAMED 1918-01-25 03:00:00 NR -22.3077 141.961 main 0 0 __________P___ -1 -22.3077 141.961 7 6 284
1918021S16153 1918 7 SP EA NOT_NAMED 1918-01-25 06:00:00 NR -22.2315 141.634 main 0 0 __________P___ -1 -22.2315 141.634 7 6 284
1918021S16153 1918 7 SP EA NOT_NAMED 1918-01-25 09:00:00 NR -22.1525 141.311 main 0 0 __________P___ -1 -22.1525 141.311 7 6 285
1918021S16153 1918 7 SP EA NOT_NAMED 1918-01-25 11:00:00 NR -22.1000 141.100 main 0 0 __________O___ -1 -22.1000 141.100 7 6 285
1918021S16153 1918 7 SP EA NOT_NAMED 1918-01-25 12:00:00 NR -22.0725 140.992 main 0 0 __________P___ -1 -22.0725 140.992 7 6 286
1918021S16153 1918 7 SP EA NOT_NAMED 1918-01-25 15:00:00 NR -21.9891 140.670 main 0 0 __________P___ -1 -21.9891 140.670 7 6 286
1918021S16153 1918 7 SP EA NOT_NAMED 1918-01-25 18:00:00 NR -21.9091 140.361 main 0 0 __________P___ -1 -21.9091 140.361 7 6 285
1918021S16153 1918 7 SP EA NOT_NAMED 1918-01-25 21:00:00 NR -21.8386 140.074 main 0 0 __________P___ -1 -21.8386 140.074 7 5 284
1918021S16153 1918 7 SP EA NOT_NAMED 1918-01-25 23:00:00 NR -21.8000 139.900 main 0 0 __________O___ -1 -21.8000 139.900 7 5 283
1918021S16153 1918 7 SP EA NOT_NAMED 1918-01-26 00:00:00 NR -21.7848 139.820 main 0 0 __________P___ -1 -21.7848 139.820 7 4 280
1918021S16153 1918 7 SP EA NOT_NAMED 1918-01-26 03:00:00 NR -21.7505 139.602 main 0 0 __________P___ -1 -21.7505 139.602 7 4 278
1918021S16153 1918 7 SP EA NOT_NAMED 1918-01-26 06:00:00 NR -21.7281 139.407 main 0 0 __________P___ -1 -21.7281 139.407 7 4 276
1918021S16153 1918 7 SP EA NOT_NAMED 1918-01-26 09:00:00 NR -21.7113 139.223 main 0 0 __________P___ -1 -21.7113 139.223 7 3 276
1918021S16153 1918 7 SP EA NOT_NAMED 1918-01-26 11:00:00 NR -21.7000 139.100 main 0 0 __________O___ -1 -21.7000 139.100 7 4 278
1918021S16153 1918 7 SP EA NOT_NAMED 1918-01-26 12:00:00 NR -21.6880 139.032 main 0 0 __________P___ -1 -21.6880 139.032 7 4 281
1918021S16153 1918 7 SP EA NOT_NAMED 1918-01-26 15:00:00 NR -21.6503 138.828 main 0 0 __________P___ -1 -21.6503 138.828 7 4 281
1918021S16153 1918 7 SP EA NOT_NAMED 1918-01-26 18:00:00 NR -21.6177 138.625 main 0 0 __________P___ -1 -21.6177 138.625 7 4 278
1918021S16153 1918 7 SP EA NOT_NAMED 1918-01-26 21:00:00 NR -21.5995 138.428 main 0 0 __________P___ -1 -21.5995 138.428 7 4 273
1918021S16153 1918 7 SP EA NOT_NAMED 1918-01-26 23:00:00 NR -21.6000 138.300 main 0 0 __________O___ -1 -21.6000 138.300 7 4 268
1918021S16153 1918 7 SP EA NOT_NAMED 1918-01-27 00:00:00 NR -21.6053 138.237 main 0 0 __________P___ -1 -21.6053 138.237 7 3 261
1918021S16153 1918 7 SP EA NOT_NAMED 1918-01-27 03:00:00 NR -21.6375 138.053 main 0 0 __________P___ -1 -21.6375 138.053 7 3 256
1918021S16153 1918 7 SP EA NOT_NAMED 1918-01-27 06:00:00 NR -21.6888 137.877 main 0 0 __________P___ -1 -21.6888 137.877 7 3 250
1918021S16153 1918 7 SP EA NOT_NAMED 1918-01-27 09:00:00 NR -21.7530 137.708 main 0 0 __________P___ -1 -21.7530 137.708 7 3 247
1918021S16153 1918 7 SP EA NOT_NAMED 1918-01-27 11:00:00 NR -21.8000 137.600 main 0 0 __________O___ -1 -21.8000 137.600 7 3 247
1918021S16153 1918 7 SP EA NOT_NAMED 1918-01-27 12:00:00 NR -21.8192 137.538 main 0 0 __________P___ -1 -21.8192 137.538 7 4 250
1918021S16153 1918 7 SP EA NOT_NAMED 1918-01-27 15:00:00 NR -21.8813 137.354 main 0 0 __________P___ -1 -21.8813 137.354 7 4 248
1918021S16153 1918 7 SP EA NOT_NAMED 1918-01-27 18:00:00 NR -21.9525 137.188 main 0 0 __________P___ -1 -21.9525 137.188 7 3 240
1918021S16153 1918 7 SP EA NOT_NAMED 1918-01-27 21:00:00 NR -22.0360 137.057 main 0 0 __________P___ -1 -22.0360 137.057 7 3 230
1918021S16153 1918 7 SP EA NOT_NAMED 1918-01-27 23:00:00 NR -22.1000 137.000 main 0 0 __________O___ -1 -22.1000 137.000 7 2 212
1918021S16153 1918 7 SP EA NOT_NAMED 1918-01-28 00:00:00 NR -22.1362 136.984 main 0 0 __________P___ -1 -22.1362 136.984 7 2 189
1918021S16153 1918 7 SP EA NOT_NAMED 1918-01-28 03:00:00 NR -22.2562 136.972 main 0 0 __________P___ -1 -22.2562 136.972 7 3 179
1918021S16153 1918 7 SP EA NOT_NAMED 1918-01-28 06:00:00 NR -22.3863 137.004 main 0 0 __________P___ -1 -22.3863 137.004 7 3 164
1918021S16153 1918 7 SP EA NOT_NAMED 1918-01-28 09:00:00 NR -22.5171 137.059 main 0 0 __________P___ -1 -22.5171 137.059 7 3 158
1918021S16153 1918 7 SP EA NOT_NAMED 1918-01-28 11:00:00 NR -22.6000 137.100 main 0 0 __________O___ -1 -22.6000 137.100 7 3 165
1918021S16153 1918 7 SP EA NOT_NAMED 1918-01-28 12:00:00 NR -22.6379 137.106 main 0 0 __________P___ -1 -22.6379 137.106 7 2 172
1918021S16153 1918 7 SP EA NOT_NAMED 1918-01-28 15:00:00 NR -22.7465 137.126 main 0 0 __________P___ -1 -22.7465 137.126 7 2 166
1918021S16153 1918 7 SP EA NOT_NAMED 1918-01-28 18:00:00 NR -22.8477 137.162 main 0 0 __________P___ -1 -22.8477 137.162 7 2 154
1918021S16153 1918 7 SP EA NOT_NAMED 1918-01-28 21:00:00 NR -22.9415 137.230 main 0 0 __________P___ -1 -22.9415 137.230 7 2 140
1918021S16153 1918 7 SP EA NOT_NAMED 1918-01-28 23:00:00 NR -23.0000 137.300 main 0 0 __________O___ -1 -23.0000 137.300 7 3 129
1918021S16153 1918 7 SP EA NOT_NAMED 1918-01-29 00:00:00 NR -23.0271 137.345 main 0 0 __________P___ -1 -23.0271 137.345 7 3 117
1918021S16153 1918 7 SP EA NOT_NAMED 1918-01-29 03:00:00 NR -23.1026 137.514 main 0 0 __________P___ -1 -23.1026 137.514 7 4 113
1918021S16153 1918 7 SP EA NOT_NAMED 1918-01-29 06:00:00 NR -23.1737 137.719 main 0 0 __________P___ -1 -23.1737 137.719 7 4 110
1918021S16153 1918 7 SP EA NOT_NAMED 1918-01-29 09:00:00 NR -23.2469 137.945 main 0 0 __________P___ -1 -23.2469 137.945 7 4 110
1918021S16153 1918 7 SP EA NOT_NAMED 1918-01-29 11:00:00 NR -23.3000 138.100 main 0 0 __________O___ -1 -23.3000 138.100 7 5 112
1918021S16153 1918 7 SP EA NOT_NAMED 1918-01-29 12:00:00 NR -23.3324 138.173 main 0 0 __________P___ -1 -23.3324 138.173 7 5 116
1918021S16153 1918 7 SP EA NOT_NAMED 1918-01-29 15:00:00 NR -23.4363 138.397 main 0 0 __________P___ -1 -23.4363 138.397 7 5 117
1918021S16153 1918 7 SP EA NOT_NAMED 1918-01-29 18:00:00 NR -23.5426 138.626 main 0 0 __________P___ -1 -23.5426 138.626 7 5 116
1918021S16153 1918 7 SP EA NOT_NAMED 1918-01-29 21:00:00 NR -23.6421 138.853 main 0 0 __________P___ -1 -23.6421 138.853 7 5 115
1918021S16153 1918 7 SP EA NOT_NAMED 1918-01-29 23:00:00 NR -23.7000 139.000 main 0 0 __________O___ -1 -23.7000 139.000 7 4 112
1918021S16153 1918 7 SP EA NOT_NAMED 1918-01-30 00:00:00 NR -23.7233 139.070 main 0 0 __________P___ -1 -23.7233 139.070 7 4 108
1918021S16153 1918 7 SP EA NOT_NAMED 1918-01-30 03:00:00 NR -23.7823 139.275 main 0 0 __________P___ -1 -23.7823 139.275 7 4 106
1918021S16153 1918 7 SP EA NOT_NAMED 1918-01-30 06:00:00 NR -23.8297 139.473 main 0 0 __________P___ -1 -23.8297 139.473 7 4 104
1918021S16153 1918 7 SP EA NOT_NAMED 1918-01-30 09:00:00 NR -23.8718 139.669 main 0 0 __________P___ -1 -23.8718 139.669 7 4 103
1918021S16153 1918 7 SP EA NOT_NAMED 1918-01-30 11:00:00 NR -23.9000 139.800 main 0 0 __________O___ -1 -23.9000 139.800 7 3 96
1918021S16153 1918 7 SP EA NOT_NAMED 1918-01-30 12:00:00 NR -23.8877 139.832 main 0 0 __________P___ -1 -23.8877 139.832 7 2 59
1918021S16153 1918 7 SP EA NOT_NAMED 1918-01-30 15:00:00 NR -23.8388 139.914 main 0 0 __________P___ -1 -23.8388 139.914 7 2 73
1918021S16153 1918 7 SP EA NOT_NAMED 1918-01-30 18:00:00 NR -23.8295 140.043 main 0 0 __________P___ -1 -23.8295 140.043 7 4 105
1918021S16153 1918 7 SP EA NOT_NAMED 1918-01-30 21:00:00 NR -23.9327 140.306 main 0 0 __________P___ -1 -23.9327 140.306 7 7 118
1918021S16153 1918 7 SP EA NOT_NAMED 1918-01-30 23:00:00 NR -24.1000 140.600 main 0 0 __________O___ -1 -24.1000 140.600 7 11 122
1918021S16153 1918 7 SP EA NOT_NAMED 1918-01-31 00:00:00 NR -24.2227 140.816 main 0 0 __________P___ -1 -24.2227 140.816 7 17 123
1918021S16153 1918 7 SP EA NOT_NAMED 1918-01-31 03:00:00 NR -24.7128 141.628 main 0 0 __________P___ -1 -24.7128 141.628 7 20 125
1918021S16153 1918 7 SP EA NOT_NAMED 1918-01-31 06:00:00 NR -25.3477 142.603 main 0 0 __________P___ -1 -25.3477 142.603 7 23 127
1918021S16153 1918 7 SP EA NOT_NAMED 1918-01-31 09:00:00 NR -26.0799 143.635 main 0 0 __________P___ -1 -26.0799 143.635 7 24 129
1918021S16153 1918 7 SP EA NOT_NAMED 1918-01-31 11:00:00 NR -26.6000 144.300 main 0 0 __________O___ -1 -26.6000 144.300 7 23 132
1918021S16153 1918 7 SP EA NOT_NAMED 1918-01-31 12:00:00 NR -26.8635 144.593 main 0 0 __________P___ -1 -26.8635 144.593 7 23 137
1918021S16153 1918 7 SP EA NOT_NAMED 1918-01-31 15:00:00 NR -27.7058 145.447 main 0 0 __________P___ -1 -27.7058 145.447 7 23 139
1918021S16153 1918 7 SP EA NOT_NAMED 1918-01-31 18:00:00 NR -28.5743 146.260 main 0 0 __________P___ -1 -28.5743 146.260 7 22 141
1918021S16153 1918 7 SP EA NOT_NAMED 1918-01-31 21:00:00 NR -29.4027 147.024 main 0 0 __________P___ -1 -29.4027 147.024 7 21 141
1918021S16153 1918 7 SP EA NOT_NAMED 1918-01-31 23:00:00 NR -29.9000 147.500 main 0 0 __________O___ -1 -29.9000 147.500 7 19 140
1918021S16153 1918 7 SP EA NOT_NAMED 1918-02-01 00:00:00 NR -30.1210 147.717 main 0 0 __________P___ -1 -30.1210 147.717 7 16 139
1918021S16153 1918 7 SP EA NOT_NAMED 1918-02-01 03:00:00 NR -30.7187 148.315 main 0 0 __________P___ -1 -30.7187 148.315 7 15 138
1918021S16153 1918 7 SP EA NOT_NAMED 1918-02-01 06:00:00 NR -31.2267 148.880 main 0 0 __________P___ -1 -31.2267 148.880 7 14 134
1918021S16153 1918 7 SP EA NOT_NAMED 1918-02-01 09:00:00 NR -31.6548 149.467 main 0 0 __________P___ -1 -31.6548 149.467 7 13 128
1918021S16153 1918 7 SP EA NOT_NAMED 1918-02-01 11:00:00 NR -31.9000 149.900 main 0 0 __________O___ -1 -31.9000 149.900 7 13 122
1918021S16153 1918 7 SP EA NOT_NAMED 1918-02-01 12:00:00 NR -32.0114 150.135 main 0 0 __________P___ -1 -32.0114 150.135 7 14 115
1918021S16153 1918 7 SP EA NOT_NAMED 1918-02-01 15:00:00 NR -32.3065 150.911 main 0 0 __________P___ -1 -32.3065 150.911 7 15 111
1918021S16153 1918 7 SP EA NOT_NAMED 1918-02-01 18:00:00 NR -32.5538 151.768 main 0 0 __________P___ -1 -32.5538 151.768 7 16 107
1918021S16153 1918 7 SP EA NOT_NAMED 1918-02-01 21:00:00 NR -32.7680 152.679 main 47 47 __________P___ -1 -32.7680 152.679 7 16 105
1918021S16153 1918 7 SP EA NOT_NAMED 1918-02-01 23:00:00 NR -32.9000 153.300 main 93 __________O___ -1 -32.9000 153.300 7 16 104

デジタル台風データ・検索

IBTrACS Databaseについて

本データベースは、米国NOAAが公開する1842年以降の世界の熱帯低気圧のベストトラックデータアーカイブInternational Best Track Archive for Climate Stewardship (IBTrACS)を、ウェブで閲覧しやすい形式に変換したものです。

最終更新日:2021-10-21